createdAt,value
2017-08-19T00:00:26.020Z,1020.99
2017-08-19T00:01:26.666Z,1020.90
2017-08-19T00:02:27.300Z,1020.87
2017-08-19T00:03:28.085Z,1020.90
2017-08-19T00:04:28.724Z,1020.84
2017-08-19T00:05:29.363Z,1020.78
2017-08-19T00:06:29.999Z,1020.83
2017-08-19T00:07:30.632Z,1020.76
2017-08-19T00:08:31.270Z,1020.80
2017-08-19T00:09:31.909Z,1020.81
2017-08-19T00:10:32.540Z,1020.71
2017-08-19T00:11:33.531Z,1020.78
2017-08-19T00:12:34.162Z,1020.74
2017-08-19T00:13:34.799Z,1020.69
2017-08-19T00:14:35.434Z,1020.67
2017-08-19T00:15:36.067Z,1020.72
2017-08-19T00:16:36.708Z,1020.67
2017-08-19T00:17:37.353Z,1020.72
2017-08-19T00:18:37.980Z,1020.64
2017-08-19T00:19:38.815Z,1020.72
2017-08-19T00:20:39.450Z,1020.64
2017-08-19T00:21:40.092Z,1020.58
2017-08-19T00:22:40.725Z,1020.60
2017-08-19T00:23:41.364Z,1020.58
2017-08-19T00:24:42.010Z,1020.61
2017-08-19T00:25:42.643Z,1020.49
2017-08-19T00:26:43.280Z,1020.58
2017-08-19T00:27:44.072Z,1020.58
2017-08-19T00:28:44.714Z,1020.54
2017-08-19T00:29:45.341Z,1020.56
2017-08-19T00:30:45.982Z,1020.55
2017-08-19T00:31:46.616Z,1020.55
2017-08-19T00:32:47.251Z,1020.51
2017-08-19T00:33:47.888Z,1020.49
2017-08-19T00:34:48.522Z,1020.46
2017-08-19T00:35:49.160Z,1020.52
2017-08-19T00:36:49.994Z,1020.46
2017-08-19T00:37:50.629Z,1020.50
2017-08-19T00:38:51.268Z,1020.52
2017-08-19T00:39:51.907Z,1020.45
2017-08-19T00:40:52.538Z,1020.43
2017-08-19T00:41:53.179Z,1020.52
2017-08-19T00:42:53.814Z,1020.49
2017-08-19T00:43:54.450Z,1020.43
2017-08-19T00:44:55.284Z,1020.39
2017-08-19T00:45:55.926Z,1020.39
2017-08-19T00:46:56.558Z,1020.41
2017-08-19T00:47:57.195Z,1020.40
2017-08-19T00:48:57.837Z,1020.39
2017-08-19T00:49:58.482Z,1020.39
2017-08-19T00:50:59.115Z,1020.41
2017-08-19T00:51:59.746Z,1020.35
2017-08-19T00:53:00.586Z,1020.35
2017-08-19T00:54:01.230Z,1020.33
2017-08-19T00:55:01.857Z,1020.38
2017-08-19T00:56:02.499Z,1020.42
2017-08-19T00:57:03.138Z,1020.43
2017-08-19T00:58:03.769Z,1020.43
2017-08-19T00:59:04.404Z,1020.46
2017-08-19T01:00:05.043Z,1020.42
2017-08-19T01:01:05.826Z,1020.46
2017-08-19T01:02:06.463Z,1020.42
2017-08-19T01:03:07.101Z,1020.41
2017-08-19T01:04:07.743Z,1020.34
2017-08-19T01:05:08.372Z,1020.34
2017-08-19T01:06:09.005Z,1020.34
2017-08-19T01:07:09.640Z,1020.44
2017-08-19T01:08:10.283Z,1020.39
2017-08-19T01:09:10.923Z,1020.39
2017-08-19T01:10:11.751Z,1020.39
2017-08-19T01:11:12.392Z,1020.33
2017-08-19T01:12:13.024Z,1020.36
2017-08-19T01:13:13.659Z,1020.31
2017-08-19T01:14:14.292Z,1020.34
2017-08-19T01:15:14.938Z,1020.38
2017-08-19T01:16:15.571Z,1020.38
2017-08-19T01:17:16.203Z,1020.29
2017-08-19T01:18:17.044Z,1020.35
2017-08-19T01:19:17.684Z,1020.27
2017-08-19T01:20:18.316Z,1020.29
2017-08-19T01:21:18.951Z,1020.31
2017-08-19T01:22:19.585Z,1020.26
2017-08-19T01:23:20.222Z,1020.29
2017-08-19T01:24:20.862Z,1020.25
2017-08-19T01:25:21.493Z,1020.30
2017-08-19T01:26:22.327Z,1020.33
2017-08-19T01:27:22.961Z,1020.28
2017-08-19T01:28:23.595Z,1020.29
2017-08-19T01:29:24.233Z,1020.27
2017-08-19T01:30:24.867Z,1020.32
2017-08-19T01:31:25.503Z,1020.32
2017-08-19T01:32:26.138Z,1020.29
2017-08-19T01:33:26.779Z,1020.23
2017-08-19T01:34:27.609Z,1020.31
2017-08-19T01:35:28.294Z,1020.22
2017-08-19T01:36:28.946Z,1020.24
2017-08-19T01:37:29.570Z,1020.16
2017-08-19T01:38:30.207Z,1020.16
2017-08-19T01:39:30.843Z,1020.20
2017-08-19T01:40:31.482Z,1020.13
2017-08-19T01:41:32.113Z,1020.20
2017-08-19T01:42:32.903Z,1020.20
2017-08-19T01:43:33.533Z,1020.14
2017-08-19T01:44:34.175Z,1020.18
2017-08-19T01:45:34.817Z,1020.20
2017-08-19T01:46:35.458Z,1020.22
2017-08-19T01:47:36.089Z,1020.29
2017-08-19T01:48:36.722Z,1020.16
2017-08-19T01:49:37.360Z,1020.21
2017-08-19T01:50:38.001Z,1020.18
2017-08-19T01:51:38.882Z,1020.21
2017-08-19T01:52:39.524Z,1020.11
2017-08-19T01:53:40.155Z,1020.17
2017-08-19T01:54:40.797Z,1020.19
2017-08-19T01:55:41.430Z,1020.26
2017-08-19T01:56:42.065Z,1020.19
2017-08-19T01:57:42.699Z,1020.23
2017-08-19T01:58:43.336Z,1020.16
2017-08-19T01:59:44.272Z,1020.22
2017-08-19T02:00:44.901Z,1020.18
2017-08-19T02:01:45.539Z,1020.10
2017-08-19T02:02:46.172Z,1020.06
2017-08-19T02:03:46.812Z,1020.21
2017-08-19T02:04:47.449Z,1020.13
2017-08-19T02:05:48.088Z,1020.20
2017-08-19T02:06:48.723Z,1020.22
2017-08-19T02:07:49.510Z,1020.22
2017-08-19T02:08:50.143Z,1020.21
2017-08-19T02:09:50.778Z,1020.16
2017-08-19T02:10:51.411Z,1020.16
2017-08-19T02:11:52.048Z,1020.19
2017-08-19T02:12:52.681Z,1020.14
2017-08-19T02:13:53.314Z,1020.11
2017-08-19T02:14:53.951Z,1020.14
2017-08-19T02:15:54.885Z,1020.13
2017-08-19T02:16:55.521Z,1020.16
2017-08-19T02:17:56.154Z,1020.13
2017-08-19T02:18:56.792Z,1020.20
2017-08-19T02:19:57.426Z,1020.16
2017-08-19T02:20:58.060Z,1020.12
2017-08-19T02:21:58.701Z,1020.08
2017-08-19T02:22:59.341Z,1020.01
2017-08-19T02:23:59.977Z,1020.06
2017-08-19T02:25:00.911Z,1020.04
2017-08-19T02:26:01.548Z,1020.11
2017-08-19T02:27:02.182Z,1020.03
2017-08-19T02:28:02.817Z,1020.20
2017-08-19T02:29:03.456Z,1020.20
2017-08-19T02:30:04.100Z,1020.24
2017-08-19T02:31:04.728Z,1020.29
2017-08-19T02:32:05.367Z,1020.27
2017-08-19T02:33:06.358Z,1020.29
2017-08-19T02:34:06.986Z,1020.33
2017-08-19T02:35:07.641Z,1020.26
2017-08-19T02:36:08.262Z,1020.29
2017-08-19T02:37:08.896Z,1020.34
2017-08-19T02:38:09.536Z,1020.32
2017-08-19T02:39:10.175Z,1020.38
2017-08-19T02:40:10.813Z,1020.29
2017-08-19T02:41:11.649Z,1020.27
2017-08-19T02:42:12.290Z,1020.29
2017-08-19T02:43:12.929Z,1020.27
2017-08-19T02:44:13.563Z,1020.32
2017-08-19T02:45:14.194Z,1020.32
2017-08-19T02:46:14.828Z,1020.39
2017-08-19T02:47:15.469Z,1020.32
2017-08-19T02:48:16.098Z,1020.33
2017-08-19T02:49:16.945Z,1020.29
2017-08-19T02:50:17.581Z,1020.29
2017-08-19T02:51:18.218Z,1020.32
2017-08-19T02:52:18.854Z,1020.32
2017-08-19T02:53:19.483Z,1020.32
2017-08-19T02:54:20.127Z,1020.39
2017-08-19T02:55:20.756Z,1020.36
2017-08-19T02:56:21.391Z,1020.34
2017-08-19T02:57:22.183Z,1020.36
2017-08-19T02:58:22.817Z,1020.37
2017-08-19T02:59:23.451Z,1020.37
2017-08-19T03:00:24.093Z,1020.42
2017-08-19T03:01:24.724Z,1020.36
2017-08-19T03:02:25.364Z,1020.32
2017-08-19T03:03:26.002Z,1020.31
2017-08-19T03:04:26.637Z,1020.31
2017-08-19T03:05:27.269Z,1020.30
2017-08-19T03:06:28.160Z,1020.32
2017-08-19T03:07:28.788Z,1020.31
2017-08-19T03:08:29.428Z,1020.33
2017-08-19T03:09:30.070Z,1020.31
2017-08-19T03:10:30.699Z,1020.31
2017-08-19T03:11:31.344Z,1020.26
2017-08-19T03:12:31.985Z,1020.21
2017-08-19T03:13:32.613Z,1020.23
2017-08-19T03:14:33.446Z,1020.18
2017-08-19T03:15:34.087Z,1020.15
2017-08-19T03:16:34.719Z,1020.11
2017-08-19T03:17:35.353Z,1020.19
2017-08-19T03:18:35.991Z,1020.13
2017-08-19T03:19:36.579Z,1020.13
2017-08-19T03:20:37.210Z,1020.04
2017-08-19T03:21:37.847Z,1020.12
2017-08-19T03:22:38.682Z,1020.08
2017-08-19T03:23:39.323Z,1020.05
2017-08-19T03:24:39.965Z,1020.03
2017-08-19T03:25:40.595Z,1020.11
2017-08-19T03:26:41.231Z,1020.05
2017-08-19T03:27:41.865Z,1020.02
2017-08-19T03:28:42.501Z,1020.05
2017-08-19T03:29:43.137Z,1020.10
2017-08-19T03:30:43.967Z,1020.05
2017-08-19T03:31:44.601Z,1020.07
2017-08-19T03:32:45.233Z,1020.12
2017-08-19T03:33:45.875Z,1020.09
2017-08-19T03:34:46.511Z,1020.12
2017-08-19T03:35:47.141Z,1020.09
2017-08-19T03:36:47.783Z,1020.08
2017-08-19T03:37:48.415Z,1020.08
2017-08-19T03:38:49.049Z,1020.13
2017-08-19T03:39:49.833Z,1020.10
2017-08-19T03:40:50.474Z,1020.09
2017-08-19T03:41:51.105Z,1020.19
2017-08-19T03:42:51.747Z,1020.20
2017-08-19T03:43:52.380Z,1020.19
2017-08-19T03:44:53.024Z,1020.19
2017-08-19T03:45:53.658Z,1020.15
2017-08-19T03:46:54.292Z,1020.15
2017-08-19T03:47:55.136Z,1020.12
2017-08-19T03:48:55.770Z,1020.12
2017-08-19T03:49:56.401Z,1020.05
2017-08-19T03:50:57.037Z,1020.05
2017-08-19T03:51:57.669Z,1020.15
2017-08-19T03:52:58.313Z,1020.12
2017-08-19T03:53:58.947Z,1020.15
2017-08-19T03:54:59.586Z,1020.09
2017-08-19T03:56:00.417Z,1020.12
2017-08-19T03:57:01.064Z,1020.08
2017-08-19T03:58:01.698Z,1020.10
2017-08-19T03:59:02.334Z,1020.10
2017-08-19T04:00:02.968Z,1020.08
2017-08-19T04:01:03.659Z,1020.10
2017-08-19T04:02:04.343Z,1020.10
2017-08-19T04:03:04.982Z,1020.10
2017-08-19T04:04:05.815Z,1020.08
2017-08-19T04:05:06.458Z,1020.09
2017-08-19T04:06:07.098Z,1020.01
2017-08-19T04:07:07.731Z,1020.04
2017-08-19T04:08:08.371Z,1020.06
2017-08-19T04:09:09.009Z,1020.01
2017-08-19T04:10:09.640Z,1020.06
2017-08-19T04:11:10.281Z,1020.11
2017-08-19T04:12:11.125Z,1020.08
2017-08-19T04:13:11.748Z,1020.02
2017-08-19T04:14:12.384Z,1020.14
2017-08-19T04:15:13.024Z,1020.04
2017-08-19T04:16:13.662Z,1020.09
2017-08-19T04:17:14.298Z,1020.00
2017-08-19T04:18:14.931Z,1020.09
2017-08-19T04:19:15.573Z,1020.08
2017-08-19T04:20:16.204Z,1020.11
2017-08-19T04:21:17.038Z,1020.08
2017-08-19T04:22:17.678Z,1020.18
2017-08-19T04:23:18.309Z,1020.08
2017-08-19T04:24:18.945Z,1020.11
2017-08-19T04:25:19.584Z,1020.07
2017-08-19T04:26:20.216Z,1020.14
2017-08-19T04:27:20.855Z,1020.19
2017-08-19T04:28:21.495Z,1020.23
2017-08-19T04:29:22.328Z,1020.17
2017-08-19T04:30:22.971Z,1020.33
2017-08-19T04:31:23.601Z,1020.33
2017-08-19T04:32:24.239Z,1020.24
2017-08-19T04:33:24.871Z,1020.31
2017-08-19T04:34:25.514Z,1020.31
2017-08-19T04:35:26.148Z,1020.29
2017-08-19T04:36:26.785Z,1020.27
2017-08-19T04:37:27.567Z,1020.32
2017-08-19T04:38:28.205Z,1020.23
2017-08-19T04:39:28.844Z,1020.25
2017-08-19T04:40:29.480Z,1020.25
2017-08-19T04:41:30.111Z,1020.30
2017-08-19T04:42:30.748Z,1020.32
2017-08-19T04:43:31.382Z,1020.32
2017-08-19T04:44:32.016Z,1020.35
2017-08-19T04:45:32.852Z,1020.38
2017-08-19T04:46:33.486Z,1020.28
2017-08-19T04:47:34.128Z,1020.24
2017-08-19T04:48:34.764Z,1020.28
2017-08-19T04:49:35.402Z,1020.28
2017-08-19T04:50:36.036Z,1020.23
2017-08-19T04:51:36.669Z,1020.24
2017-08-19T04:52:37.312Z,1020.30
2017-08-19T04:53:37.945Z,1020.28
2017-08-19T04:54:38.776Z,1020.32
2017-08-19T04:55:39.409Z,1020.31
2017-08-19T04:56:40.044Z,1020.21
2017-08-19T04:57:40.684Z,1020.24
2017-08-19T04:58:41.323Z,1020.33
2017-08-19T04:59:42.013Z,1020.29
2017-08-19T05:00:42.644Z,1020.34
2017-08-19T05:01:43.283Z,1020.26
2017-08-19T05:02:44.076Z,1020.21
2017-08-19T05:03:44.705Z,1020.29
2017-08-19T05:04:45.340Z,1020.25
2017-08-19T05:05:45.974Z,1020.21
2017-08-19T05:06:46.610Z,1020.23
2017-08-19T05:07:47.243Z,1020.26
2017-08-19T05:08:47.879Z,1020.29
2017-08-19T05:09:48.513Z,1020.32
2017-08-19T05:10:49.349Z,1020.33
2017-08-19T05:11:49.985Z,1020.38
2017-08-19T05:12:50.624Z,1020.32
2017-08-19T05:13:51.262Z,1020.31
2017-08-19T05:14:51.898Z,1020.46
2017-08-19T05:15:52.530Z,1020.43
2017-08-19T05:16:53.170Z,1020.38
2017-08-19T05:17:53.802Z,1020.42
2017-08-19T05:18:54.742Z,1020.38
2017-08-19T05:19:55.379Z,1020.43
2017-08-19T05:20:56.015Z,1020.41
2017-08-19T05:21:56.652Z,1020.41
2017-08-19T05:22:57.283Z,1020.40
2017-08-19T05:23:57.921Z,1020.32
2017-08-19T05:24:58.564Z,1020.42
2017-08-19T05:25:59.189Z,1020.40
2017-08-19T05:26:59.981Z,1020.33
2017-08-19T05:28:00.613Z,1020.40
2017-08-19T05:29:01.248Z,1020.35
2017-08-19T05:30:01.883Z,1020.42
2017-08-19T05:31:02.518Z,1020.42
2017-08-19T05:32:03.151Z,1020.43
2017-08-19T05:33:03.793Z,1020.47
2017-08-19T05:34:04.431Z,1020.45
2017-08-19T05:35:05.059Z,1020.47
2017-08-19T05:36:05.945Z,1020.50
2017-08-19T05:37:06.578Z,1020.48
2017-08-19T05:38:07.214Z,1020.55
2017-08-19T05:39:07.850Z,1020.64
2017-08-19T05:40:08.541Z,1020.57
2017-08-19T05:41:09.172Z,1020.54
2017-08-19T05:42:09.805Z,1020.50
2017-08-19T05:43:10.443Z,1020.60
2017-08-19T05:44:11.332Z,1020.55
2017-08-19T05:45:11.978Z,1020.60
2017-08-19T05:46:12.604Z,1020.62
2017-08-19T05:47:13.243Z,1020.64
2017-08-19T05:48:13.869Z,1020.74
2017-08-19T05:49:14.504Z,1020.69
2017-08-19T05:50:15.142Z,1020.74
2017-08-19T05:51:15.786Z,1020.68
2017-08-19T05:52:16.565Z,1020.75
2017-08-19T05:53:17.210Z,1020.74
2017-08-19T05:54:17.843Z,1020.75
2017-08-19T05:55:18.473Z,1020.72
2017-08-19T05:56:19.109Z,1020.74
2017-08-19T05:57:19.743Z,1020.71
2017-08-19T05:58:20.378Z,1020.76
2017-08-19T05:59:21.013Z,1020.78
2017-08-19T06:00:21.906Z,1020.76
2017-08-19T06:01:22.532Z,1020.71
2017-08-19T06:02:23.167Z,1020.71
2017-08-19T06:03:23.807Z,1020.78
2017-08-19T06:04:24.446Z,1020.75
2017-08-19T06:05:25.078Z,1020.81
2017-08-19T06:06:25.718Z,1020.78
2017-08-19T06:07:26.349Z,1020.81
2017-08-19T06:08:26.984Z,1020.75
2017-08-19T06:09:27.818Z,1020.82
2017-08-19T06:10:28.457Z,1020.82
2017-08-19T06:11:29.095Z,1020.86
2017-08-19T06:12:29.726Z,1020.78
2017-08-19T06:13:30.361Z,1020.76
2017-08-19T06:14:30.995Z,1020.89
2017-08-19T06:15:31.633Z,1020.86
2017-08-19T06:16:32.277Z,1020.88
2017-08-19T06:17:33.111Z,1020.81
2017-08-19T06:18:33.742Z,1020.88
2017-08-19T06:19:34.428Z,1020.81
2017-08-19T06:20:35.064Z,1020.87
2017-08-19T06:21:35.705Z,1020.87
2017-08-19T06:22:36.340Z,1020.84
2017-08-19T06:23:37.024Z,1020.86
2017-08-19T06:24:37.657Z,1020.91
2017-08-19T06:25:38.491Z,1020.91
2017-08-19T06:26:39.125Z,1020.97
2017-08-19T06:27:39.759Z,1020.99
2017-08-19T06:28:40.400Z,1020.92
2017-08-19T06:29:41.036Z,1020.90
2017-08-19T06:30:41.678Z,1020.95
2017-08-19T06:31:42.313Z,1020.90
2017-08-19T06:32:42.945Z,1020.89
2017-08-19T06:33:43.785Z,1020.89
2017-08-19T06:34:44.426Z,1020.92
2017-08-19T06:35:45.065Z,1020.90
2017-08-19T06:36:45.701Z,1020.88
2017-08-19T06:37:46.340Z,1020.87
2017-08-19T06:38:46.969Z,1020.87
2017-08-19T06:39:47.603Z,1020.90
2017-08-19T06:40:48.253Z,1020.92
2017-08-19T06:41:49.184Z,1020.92
2017-08-19T06:42:49.812Z,1020.91
2017-08-19T06:43:50.448Z,1020.84
2017-08-19T06:44:51.084Z,1020.93
2017-08-19T06:45:51.728Z,1020.98
2017-08-19T06:46:52.364Z,1021.01
2017-08-19T06:47:53.001Z,1020.96
2017-08-19T06:48:53.633Z,1020.96
2017-08-19T06:49:54.273Z,1020.97
2017-08-19T06:50:55.110Z,1020.97
2017-08-19T06:51:55.743Z,1021.00
2017-08-19T06:52:56.376Z,1021.02
2017-08-19T06:53:57.011Z,1021.08
2017-08-19T06:54:57.650Z,1021.07
2017-08-19T06:55:58.294Z,1021.08
2017-08-19T06:56:58.934Z,1021.11
2017-08-19T06:57:59.570Z,1021.09
2017-08-19T06:59:00.406Z,1021.09
2017-08-19T07:00:01.042Z,1021.15
2017-08-19T07:01:01.674Z,1021.18
2017-08-19T07:02:02.308Z,1021.25
2017-08-19T07:03:02.943Z,1021.24
2017-08-19T07:04:03.577Z,1021.11
2017-08-19T07:05:04.219Z,1021.15
2017-08-19T07:06:04.849Z,1021.15
2017-08-19T07:07:05.633Z,1021.06
2017-08-19T07:08:06.275Z,1021.17
2017-08-19T07:09:06.918Z,1021.12
2017-08-19T07:10:07.557Z,1021.08
2017-08-19T07:11:08.193Z,1021.13
2017-08-19T07:12:08.831Z,1021.16
2017-08-19T07:13:09.467Z,1021.15
2017-08-19T07:14:10.104Z,1021.11
2017-08-19T07:15:10.937Z,1021.13
2017-08-19T07:16:11.575Z,1021.11
2017-08-19T07:17:12.209Z,1021.13
2017-08-19T07:18:12.843Z,1021.17
2017-08-19T07:19:13.477Z,1021.07
2017-08-19T07:20:14.118Z,1021.07
2017-08-19T07:21:14.756Z,1021.05
2017-08-19T07:22:15.387Z,1021.07
2017-08-19T07:23:16.028Z,1021.02
2017-08-19T07:24:16.859Z,1021.07
2017-08-19T07:25:17.494Z,1021.08
2017-08-19T07:26:18.126Z,1021.05
2017-08-19T07:27:18.764Z,1021.03
2017-08-19T07:28:19.397Z,1020.95
2017-08-19T07:29:20.032Z,1020.94
2017-08-19T07:30:20.668Z,1020.97
2017-08-19T07:31:21.309Z,1021.02
2017-08-19T07:32:22.138Z,1021.00
2017-08-19T07:33:22.781Z,1020.98
2017-08-19T07:34:23.418Z,1021.07
2017-08-19T07:35:24.052Z,1021.06
2017-08-19T07:36:24.693Z,1020.99
2017-08-19T07:37:25.322Z,1021.05
2017-08-19T07:38:25.962Z,1020.94
2017-08-19T07:39:26.593Z,1020.91
2017-08-19T07:40:27.381Z,1020.91
2017-08-19T07:41:28.018Z,1020.88
2017-08-19T07:42:28.653Z,1020.91
2017-08-19T07:43:29.285Z,1020.94
2017-08-19T07:44:29.921Z,1020.91
2017-08-19T07:45:30.568Z,1020.93
2017-08-19T07:46:31.192Z,1020.87
2017-08-19T07:47:31.834Z,1020.92
2017-08-19T07:48:32.715Z,1020.92
2017-08-19T07:49:33.348Z,1020.95
2017-08-19T07:50:33.985Z,1020.89
2017-08-19T07:51:34.618Z,1020.89
2017-08-19T07:52:35.252Z,1020.99
2017-08-19T07:53:35.893Z,1020.90
2017-08-19T07:54:36.528Z,1020.93
2017-08-19T07:55:37.160Z,1020.92
2017-08-19T07:56:37.993Z,1020.95
2017-08-19T07:57:38.633Z,1020.84
2017-08-19T07:58:39.265Z,1020.82
2017-08-19T07:59:39.904Z,1020.90
2017-08-19T08:00:40.533Z,1020.86
2017-08-19T08:01:41.172Z,1020.88
2017-08-19T08:02:41.809Z,1020.87
2017-08-19T08:03:42.446Z,1020.94
2017-08-19T08:04:43.079Z,1020.90
2017-08-19T08:05:43.914Z,1020.92
2017-08-19T08:06:44.552Z,1020.90
2017-08-19T08:07:45.186Z,1020.92
2017-08-19T08:08:45.819Z,1020.98
2017-08-19T08:09:46.455Z,1020.92
2017-08-19T08:10:47.093Z,1020.99
2017-08-19T08:11:47.730Z,1020.91
2017-08-19T08:12:48.359Z,1020.95
2017-08-19T08:13:49.299Z,1021.00
2017-08-19T08:14:49.939Z,1020.96
2017-08-19T08:15:50.570Z,1020.92
2017-08-19T08:16:51.206Z,1020.95
2017-08-19T08:17:51.839Z,1020.96
2017-08-19T08:18:52.476Z,1020.93
2017-08-19T08:19:53.115Z,1020.95
2017-08-19T08:20:53.745Z,1020.98
2017-08-19T08:21:54.540Z,1020.93
2017-08-19T08:22:55.176Z,1020.99
2017-08-19T08:23:55.806Z,1020.90
2017-08-19T08:24:56.449Z,1021.01
2017-08-19T08:25:57.083Z,1020.94
2017-08-19T08:26:57.722Z,1020.90
2017-08-19T08:27:58.408Z,1020.87
2017-08-19T08:28:59.043Z,1020.87
2017-08-19T08:29:59.884Z,1020.84
2017-08-19T08:31:00.516Z,1020.80
2017-08-19T08:32:01.150Z,1020.85
2017-08-19T08:33:01.797Z,1020.84
2017-08-19T08:34:02.425Z,1020.85
2017-08-19T08:35:03.067Z,1020.86
2017-08-19T08:36:03.752Z,1020.85
2017-08-19T08:37:04.392Z,1020.79
2017-08-19T08:38:05.023Z,1020.77
2017-08-19T08:39:05.811Z,1020.81
2017-08-19T08:40:06.455Z,1020.81
2017-08-19T08:41:07.086Z,1020.85
2017-08-19T08:42:07.723Z,1020.91
2017-08-19T08:43:08.354Z,1020.87
2017-08-19T08:44:09.001Z,1020.81
2017-08-19T08:45:09.636Z,1020.87
2017-08-19T08:46:10.271Z,1020.84
2017-08-19T08:47:11.252Z,1020.85
2017-08-19T08:48:11.897Z,1020.82
2017-08-19T08:49:12.533Z,1020.90
2017-08-19T08:50:13.172Z,1020.87
2017-08-19T08:51:13.800Z,1020.85
2017-08-19T08:52:14.435Z,1020.88
2017-08-19T08:53:15.072Z,1020.85
2017-08-19T08:54:15.707Z,1020.90
2017-08-19T08:55:16.541Z,1020.79
2017-08-19T08:56:17.178Z,1020.87
2017-08-19T08:57:17.812Z,1020.86
2017-08-19T08:58:18.460Z,1020.88
2017-08-19T08:59:19.089Z,1020.89
2017-08-19T09:00:19.723Z,1020.94
2017-08-19T09:01:20.358Z,1020.91
2017-08-19T09:02:20.991Z,1020.88
2017-08-19T09:03:21.830Z,1020.93
2017-08-19T09:04:22.464Z,1020.91
2017-08-19T09:05:23.097Z,1020.96
2017-08-19T09:06:23.736Z,1021.03
2017-08-19T09:07:24.378Z,1020.96
2017-08-19T09:08:25.070Z,1020.96
2017-08-19T09:09:25.697Z,1020.90
2017-08-19T09:10:26.331Z,1020.92
2017-08-19T09:11:27.117Z,1021.03
2017-08-19T09:12:27.754Z,1021.01
2017-08-19T09:13:28.392Z,1020.98
2017-08-19T09:14:29.024Z,1021.03
2017-08-19T09:15:29.659Z,1021.00
2017-08-19T09:16:30.294Z,1021.03
2017-08-19T09:17:30.929Z,1020.91
2017-08-19T09:18:31.569Z,1020.98
2017-08-19T09:19:32.257Z,1020.93
2017-08-19T09:20:33.090Z,1020.94
2017-08-19T09:21:33.726Z,1020.89
2017-08-19T09:22:34.362Z,1020.94
2017-08-19T09:23:35.003Z,1020.99
2017-08-19T09:24:35.637Z,1020.91
2017-08-19T09:25:36.269Z,1020.99
2017-08-19T09:26:36.913Z,1020.90
2017-08-19T09:27:37.548Z,1020.97
2017-08-19T09:28:38.429Z,1020.95
2017-08-19T09:29:39.071Z,1020.99
2017-08-19T09:30:39.712Z,1020.99
2017-08-19T09:31:40.348Z,1020.93
2017-08-19T09:32:40.981Z,1020.93
2017-08-19T09:33:41.615Z,1020.97
2017-08-19T09:34:42.250Z,1020.97
2017-08-19T09:35:42.885Z,1020.98
2017-08-19T09:36:43.926Z,1020.91
2017-08-19T09:37:44.559Z,1021.03
2017-08-19T09:38:45.195Z,1020.97
2017-08-19T09:39:45.829Z,1021.01
2017-08-19T09:40:46.464Z,1020.99
2017-08-19T09:41:47.102Z,1021.01
2017-08-19T09:42:47.734Z,1021.01
2017-08-19T09:43:48.374Z,1021.06
2017-08-19T09:44:49.218Z,1020.90
2017-08-19T09:45:49.852Z,1020.94
2017-08-19T09:46:50.489Z,1021.03
2017-08-19T09:47:51.123Z,1021.07
2017-08-19T09:48:51.760Z,1021.00
2017-08-19T09:49:52.397Z,1020.95
2017-08-19T09:50:53.034Z,1020.89
2017-08-19T09:51:53.665Z,1020.91
2017-08-19T09:52:54.306Z,1020.98
2017-08-19T09:53:55.098Z,1020.86
2017-08-19T09:54:55.729Z,1020.87
2017-08-19T09:55:56.370Z,1020.87
2017-08-19T09:56:57.001Z,1020.93
2017-08-19T09:57:57.638Z,1020.92
2017-08-19T09:58:58.271Z,1020.88
2017-08-19T09:59:58.906Z,1020.93
2017-08-19T10:00:59.546Z,1020.91
2017-08-19T10:02:00.435Z,1020.97
2017-08-19T10:03:01.072Z,1020.86
2017-08-19T10:04:01.711Z,1020.86
2017-08-19T10:05:02.342Z,1020.93
2017-08-19T10:06:02.988Z,1020.95
2017-08-19T10:07:03.616Z,1020.90
2017-08-19T10:08:04.257Z,1020.91
2017-08-19T10:09:04.889Z,1020.98
2017-08-19T10:10:05.981Z,1020.94
2017-08-19T10:11:06.623Z,1020.99
2017-08-19T10:12:07.261Z,1020.99
2017-08-19T10:13:07.901Z,1020.97
2017-08-19T10:14:08.537Z,1021.00
2017-08-19T10:15:09.170Z,1020.98
2017-08-19T10:16:09.805Z,1021.02
2017-08-19T10:17:10.446Z,1021.02
2017-08-19T10:18:11.282Z,1020.98
2017-08-19T10:19:11.916Z,1020.99
2017-08-19T10:20:12.555Z,1020.96
2017-08-19T10:21:13.241Z,1021.01
2017-08-19T10:22:13.929Z,1020.95
2017-08-19T10:23:14.561Z,1021.03
2017-08-19T10:24:15.201Z,1020.99
2017-08-19T10:25:15.890Z,1021.01
2017-08-19T10:26:16.673Z,1020.96
2017-08-19T10:27:17.309Z,1020.94
2017-08-19T10:28:17.945Z,1020.94
2017-08-19T10:29:18.579Z,1020.96
2017-08-19T10:30:19.219Z,1020.94
2017-08-19T10:31:19.851Z,1020.85
2017-08-19T10:32:20.492Z,1020.89
2017-08-19T10:33:21.135Z,1020.93
2017-08-19T10:34:21.772Z,1020.80
2017-08-19T10:35:22.602Z,1020.82
2017-08-19T10:36:23.245Z,1020.78
2017-08-19T10:37:23.888Z,1020.77
2017-08-19T10:38:24.516Z,1020.85
2017-08-19T10:39:25.155Z,1020.79
2017-08-19T10:40:25.795Z,1020.84
2017-08-19T10:41:26.426Z,1020.87
2017-08-19T10:42:27.068Z,1020.87
2017-08-19T10:43:27.907Z,1020.86
2017-08-19T10:44:28.541Z,1020.80
2017-08-19T10:45:29.176Z,1020.88
2017-08-19T10:46:29.819Z,1020.84
2017-08-19T10:47:30.456Z,1020.85
2017-08-19T10:48:31.100Z,1020.81
2017-08-19T10:49:31.731Z,1020.79
2017-08-19T10:50:32.367Z,1020.75
2017-08-19T10:51:33.206Z,1020.75
2017-08-19T10:52:33.840Z,1020.76
2017-08-19T10:53:34.477Z,1020.68
2017-08-19T10:54:35.110Z,1020.70
2017-08-19T10:55:35.754Z,1020.67
2017-08-19T10:56:36.392Z,1020.70
2017-08-19T10:57:37.030Z,1020.60
2017-08-19T10:58:37.669Z,1020.59
2017-08-19T10:59:38.453Z,1020.59
2017-08-19T11:00:39.092Z,1020.57
2017-08-19T11:01:39.722Z,1020.63
2017-08-19T11:02:40.366Z,1020.62
2017-08-19T11:03:41.001Z,1020.47
2017-08-19T11:04:41.589Z,1020.60
2017-08-19T11:05:42.226Z,1020.55
2017-08-19T11:06:42.864Z,1020.51
2017-08-19T11:07:43.499Z,1020.60
2017-08-19T11:08:44.336Z,1020.53
2017-08-19T11:09:44.978Z,1020.58
2017-08-19T11:10:45.623Z,1020.46
2017-08-19T11:11:46.253Z,1020.42
2017-08-19T11:12:46.886Z,1020.45
2017-08-19T11:13:47.521Z,1020.41
2017-08-19T11:14:48.169Z,1020.42
2017-08-19T11:15:48.805Z,1020.42
2017-08-19T11:16:49.643Z,1020.44
2017-08-19T11:17:50.285Z,1020.29
2017-08-19T11:18:50.920Z,1020.41
2017-08-19T11:19:51.555Z,1020.35
2017-08-19T11:20:52.192Z,1020.40
2017-08-19T11:21:52.834Z,1020.39
2017-08-19T11:22:53.478Z,1020.36
2017-08-19T11:23:54.115Z,1020.41
2017-08-19T11:24:54.957Z,1020.35
2017-08-19T11:25:55.593Z,1020.33
2017-08-19T11:26:56.230Z,1020.32
2017-08-19T11:27:56.871Z,1020.21
2017-08-19T11:28:57.507Z,1020.30
2017-08-19T11:29:58.143Z,1020.28
2017-08-19T11:30:58.780Z,1020.29
2017-08-19T11:31:59.415Z,1020.27
2017-08-19T11:33:00.303Z,1020.31
2017-08-19T11:34:00.941Z,1020.28
2017-08-19T11:35:01.582Z,1020.36
2017-08-19T11:36:02.213Z,1020.28
2017-08-19T11:37:02.858Z,1020.35
2017-08-19T11:38:03.547Z,1020.29
2017-08-19T11:39:04.188Z,1020.20
2017-08-19T11:40:04.822Z,1020.27
2017-08-19T11:41:05.814Z,1020.35
2017-08-19T11:42:06.452Z,1020.32
2017-08-19T11:43:07.086Z,1020.34
2017-08-19T11:44:07.721Z,1020.26
2017-08-19T11:45:08.365Z,1020.24
2017-08-19T11:46:08.998Z,1020.25
2017-08-19T11:47:09.640Z,1020.18
2017-08-19T11:48:10.280Z,1020.18
2017-08-19T11:49:10.914Z,1020.18
2017-08-19T11:50:11.801Z,1020.18
2017-08-19T11:51:12.399Z,1020.19
2017-08-19T11:52:13.036Z,1020.23
2017-08-19T11:53:13.675Z,1020.21
2017-08-19T11:54:14.309Z,1020.23
2017-08-19T11:55:14.946Z,1020.15
2017-08-19T11:56:15.587Z,1020.14
2017-08-19T11:57:16.228Z,1020.15
2017-08-19T11:58:17.010Z,1020.17
2017-08-19T11:59:17.648Z,1020.17
2017-08-19T12:00:18.291Z,1020.14
2017-08-19T12:01:18.930Z,1020.18
2017-08-19T12:02:19.569Z,1020.18
2017-08-19T12:03:20.202Z,1020.12
2017-08-19T12:04:20.845Z,1020.15
2017-08-19T12:05:21.482Z,1020.14
2017-08-19T12:06:22.416Z,1020.18
2017-08-19T12:07:23.053Z,1020.14
2017-08-19T12:08:23.692Z,1020.10
2017-08-19T12:09:24.329Z,1020.06
2017-08-19T12:10:24.963Z,1020.09
2017-08-19T12:11:25.600Z,1020.12
2017-08-19T12:12:26.240Z,1020.12
2017-08-19T12:13:26.876Z,1020.12